Home > Products > Valid Products > TAF

000
FTPQ31 PGUM 050538
TAFGUM
TAF
PGUM 050538Z 0506/0612 26011KT P6SM VCSH SCT020 SCT040 SCT110=



000
FTPQ31 PGUM 050538
TAFGUM
TAF
PGUM 050538Z 0506/0612 26011KT P6SM VCSH SCT020 SCT040 SCT110=



000
FTPQ31 PGUM 042339
TAFGUM
TAF
PGUM 042339Z 0500/0606 23011KT P6SM VCSH SCT020 SCT040 SCT110=



000
FTPQ31 PGUM 042339
TAFGUM
TAF
PGUM 042339Z 0500/0606 23011KT P6SM VCSH SCT020 SCT040 SCT110=



000
FTPQ31 PGUM 042339
TAFGUM
TAF
PGUM 042339Z 0500/0606 23011KT P6SM VCSH SCT020 SCT040 SCT110=



000
FTPQ31 PGUM 042339
TAFGUM
TAF
PGUM 042339Z 0500/0606 23011KT P6SM VCSH SCT020 SCT040 SCT110=



000
FTPQ31 PGUM 041724
TAFGUM
TAF
PGUM 041724Z 0418/0524 VRB05KT P6SM VCSH SCT023 SCT040 BKN110=



000
FTPQ31 PGUM 041724
TAFGUM
TAF
PGUM 041724Z 0418/0524 VRB05KT P6SM VCSH SCT023 SCT040 BKN110=



000
FTPQ31 PGUM 041130
TAFGUM
TAF
PGUM 041130Z 0412/0518 VRB05KT P6SM VCSH SCT020 SCT040 BKN120=



000
FTPQ31 PGUM 041130
TAFGUM
TAF
PGUM 041130Z 0412/0518 VRB05KT P6SM VCSH SCT020 SCT040 BKN120=



000
FTPQ31 PGUM 041130
TAFGUM
TAF
PGUM 041130Z 0412/0518 VRB05KT P6SM VCSH SCT020 SCT040 BKN120=



000
FTPQ31 PGUM 041130
TAFGUM
TAF
PGUM 041130Z 0412/0518 VRB05KT P6SM VCSH SCT020 SCT040 BKN120=



000
FTPQ31 PGUM 040531
TAFGUM
TAF
PGUM 040531Z 0406/0512 25006KT P6SM VCSH FEW014 SCT050 SCT120=



000
FTPQ31 PGUM 040531
TAFGUM
TAF
PGUM 040531Z 0406/0512 25006KT P6SM VCSH FEW014 SCT050 SCT120=



000
FTPQ31 PGUM 040321 AAF
TAFGUM
TAF AMD
PGUM 040321Z 0403/0506 19005KT P6SM VCTS SCT012CB SCT040 BKN060
      TEMPO 0403/0406 VRB06KT 4SM TSRA SCT012CB BKN025
     FM040600 17005KT P6SM VCSH SCT014 SCT050 BKN140=



000
FTPQ31 PGUM 040321 AAF
TAFGUM
TAF AMD
PGUM 040321Z 0403/0506 19005KT P6SM VCTS SCT012CB SCT040 BKN060
      TEMPO 0403/0406 VRB06KT 4SM TSRA SCT012CB BKN025
     FM040600 17005KT P6SM VCSH SCT014 SCT050 BKN140=



000
FTPQ31 PGUM 032329
TAFGUM
TAF
PGUM 032329Z 0400/0506 VRB05KT P6SM VCSH SCT012 SCT025 BKN100
      TEMPO 0400/0403 6SM -SHRA SCT017 BKN030=



000
FTPQ31 PGUM 032329
TAFGUM
TAF
PGUM 032329Z 0400/0506 VRB05KT P6SM VCSH SCT012 SCT025 BKN100
      TEMPO 0400/0403 6SM -SHRA SCT017 BKN030=



000
FTPQ31 PGUM 032329
TAFGUM
TAF
PGUM 032329Z 0400/0506 VRB05KT P6SM VCSH SCT012 SCT025 BKN100
      TEMPO 0400/0403 6SM -SHRA SCT017 BKN030=



000
FTPQ31 PGUM 032329
TAFGUM
TAF
PGUM 032329Z 0400/0506 VRB05KT P6SM VCSH SCT012 SCT025 BKN100
      TEMPO 0400/0403 6SM -SHRA SCT017 BKN030=



000
FTPQ31 PGUM 032108 AAA
TAFGUM
TAF AMD
PGUM 032108Z 0321/0424 VRB05KT P6SM VCSH SCT020 BKN060 BKN100
      TEMPO 0321/0324 4SM SHRA SCT017 BKN030=



000
FTPQ31 PGUM 032108 AAA
TAFGUM
TAF AMD
PGUM 032108Z 0321/0424 VRB05KT P6SM VCSH SCT020 BKN060 BKN100
      TEMPO 0321/0324 4SM SHRA SCT017 BKN030=



000
FTPQ31 PGUM 031733
TAFGUM
TAF
PGUM 031733Z 0318/0424 VRB05KT P6SM VCSH SCT020 BKN060 BKN100=



000
FTPQ31 PGUM 031733
TAFGUM
TAF
PGUM 031733Z 0318/0424 VRB05KT P6SM VCSH SCT020 BKN060 BKN100=



000
FTPQ31 PGUM 031733
TAFGUM
TAF
PGUM 031733Z 0318/0424 VRB05KT P6SM VCSH SCT020 BKN060 BKN100=



000
FTPQ31 PGUM 031733
TAFGUM
TAF
PGUM 031733Z 0318/0424 VRB05KT P6SM VCSH SCT020 BKN060 BKN100=



000
FTPQ31 PGUM 031128
TAFGUM
TAF
PGUM 031128Z 0312/0418 VRB05KT P6SM VCSH SCT020 BKN045 OVC100=



000
FTPQ31 PGUM 031128
TAFGUM
TAF
PGUM 031128Z 0312/0418 VRB05KT P6SM VCSH SCT020 BKN045 OVC100=



000
FTPQ31 PGUM 030550
TAFGUM
TAF
PGUM 030550Z 0306/0412 VRB06KT P6SM VCTS SCT020CB BKN050
      TEMPO 0306/0308 3SM +SHRA BKN020 BKN050
     FM030800 03010KT P6SM VCSH SCT050 BKN120=



000
FTPQ31 PGUM 030550
TAFGUM
TAF
PGUM 030550Z 0306/0412 VRB06KT P6SM VCTS SCT020CB BKN050
      TEMPO 0306/0308 3SM +SHRA BKN020 BKN050
     FM030800 03010KT P6SM VCSH SCT050 BKN120=



000
FTPQ31 PGUM 030550
TAFGUM
TAF
PGUM 030550Z 0306/0412 VRB06KT P6SM VCTS SCT020CB BKN050
      TEMPO 0306/0308 3SM +SHRA BKN020 BKN050
     FM030800 03010KT P6SM VCSH SCT050 BKN120=



000
FTPQ31 PGUM 030444 AAD
TAFGUM
TAF AMD
PGUM 030444Z 0305/0406 VRB10KT P6SM VCTS SCT020CB BKN050
      TEMPO 0305/0307 BKN020CB BKN050
     FM030800 03010KT P6SM VCSH SCT050 BKN120=



000
FTPQ31 PGUM 030444 AAD
TAFGUM
TAF AMD
PGUM 030444Z 0305/0406 VRB10KT P6SM VCTS SCT020CB BKN050
      TEMPO 0305/0307 BKN020CB BKN050
     FM030800 03010KT P6SM VCSH SCT050 BKN120=



000
FTPQ31 PGUM 022338
TAFGUM
TAF
PGUM 022338Z 0300/0406 02007KT P6SM VCSH SCT020 SCT100=



000
FTPQ31 PGUM 022338
TAFGUM
TAF
PGUM 022338Z 0300/0406 02007KT P6SM VCSH SCT020 SCT100=



000
FTPQ31 PGUM 022338
TAFGUM
TAF
PGUM 022338Z 0300/0406 02007KT P6SM VCSH SCT020 SCT100=



000
FTPQ31 PGUM 022338
TAFGUM
TAF
PGUM 022338Z 0300/0406 02007KT P6SM VCSH SCT020 SCT100=



000
FTPQ31 PGUM 021728
TAFGUM
TAF
PGUM 021728Z 0218/0324 05007KT P6SM VCSH FEW020 SCT100=



000
FTPQ31 PGUM 021728
TAFGUM
TAF
PGUM 021728Z 0218/0324 05007KT P6SM VCSH FEW020 SCT100=



000
FTPQ31 PGUM 021728
TAFGUM
TAF
PGUM 021728Z 0218/0324 05007KT P6SM VCSH FEW020 SCT100=



000
FTPQ31 PGUM 021728
TAFGUM
TAF
PGUM 021728Z 0218/0324 05007KT P6SM VCSH FEW020 SCT100=



000
FTPQ31 PGUM 021122
TAFGUM
TAF
PGUM 021122Z 0212/0318 08005KT P6SM VCSH FEW020 FEW050 SCT100=



000
FTPQ31 PGUM 021122
TAFGUM
TAF
PGUM 021122Z 0212/0318 08005KT P6SM VCSH FEW020 FEW050 SCT100=



000
FTPQ31 PGUM 021122
TAFGUM
TAF
PGUM 021122Z 0212/0318 08005KT P6SM VCSH FEW020 FEW050 SCT100=



    US Dept of Commerce
    National Oceanic and Atmospheric Administration
    National Weather Service
    1325 East West Highway
    Silver Spring, MD 20910
    Page Author: NWS Internet Services Team
Disclaimer
Information Quality
Credits
Glossary
Privacy Policy
Freedom of Information Act (FOIA)
About Us
Career Opportunities